createdAt,value
2023-03-06T07:15:54.871Z,4.73
2023-03-06T07:21:01.261Z,4.53
2023-03-06T07:26:05.534Z,4.60
2023-03-06T07:31:11.884Z,4.14
2023-03-06T07:36:15.554Z,4.23
2023-03-06T07:41:22.228Z,4.62
2023-03-06T07:46:27.837Z,4.67
2023-03-06T07:51:31.715Z,4.55
2023-03-06T07:56:35.582Z,4.94
2023-03-06T08:01:40.564Z,5.14
2023-03-06T08:06:44.447Z,5.03
2023-03-06T08:11:48.182Z,4.93
2023-03-06T08:16:53.203Z,3.39
2023-03-06T08:21:56.932Z,5.61
2023-03-06T08:27:00.770Z,5.42
2023-03-06T08:32:06.675Z,5.40
2023-03-06T08:37:10.480Z,5.67
2023-03-06T08:42:14.523Z,5.55
2023-03-06T08:47:20.028Z,5.71
2023-03-06T08:52:23.898Z,5.78
2023-03-06T08:57:27.782Z,5.59
2023-03-06T09:02:33.651Z,5.30
2023-03-06T09:07:37.565Z,5.61
2023-03-06T09:12:50.669Z,5.64
2023-03-06T09:17:57.158Z,5.70
2023-03-06T09:23:01.074Z,5.67
2023-03-06T09:28:11.327Z,4.22
2023-03-06T09:33:16.950Z,5.82
2023-03-06T09:38:20.978Z,5.27
2023-03-06T09:43:29.723Z,5.90
2023-03-06T09:48:46.437Z,5.99
2023-03-06T09:54:02.626Z,5.68
2023-03-06T09:59:13.171Z,6.09
2023-03-06T10:04:33.564Z,6.13
2023-03-06T10:09:44.254Z,5.97
2023-03-06T10:14:58.423Z,6.20
2023-03-06T10:20:11.412Z,6.26
2023-03-06T10:25:24.168Z,5.38
2023-03-06T10:30:39.770Z,5.40
2023-03-06T10:35:49.674Z,6.16
2023-03-06T10:41:11.107Z,6.46
2023-03-06T10:46:27.468Z,6.40
2023-03-06T10:51:33.353Z,6.48
2023-03-06T10:56:41.860Z,6.55
2023-03-06T11:01:48.280Z,6.13
2023-03-06T11:07:15.040Z,7.00
2023-03-06T11:12:30.176Z,7.02
2023-03-06T11:17:36.166Z,6.99
2023-03-06T11:22:42.046Z,5.50
2023-03-06T11:27:48.261Z,7.12
2023-03-06T11:32:56.497Z,6.71
2023-03-06T11:38:07.120Z,7.38
2023-03-06T11:43:20.846Z,7.24
2023-03-06T11:48:29.700Z,7.29
2023-03-06T11:53:37.239Z,7.35
2023-03-06T11:58:58.170Z,7.39
2023-03-06T12:04:33.066Z,7.42
2023-03-06T12:09:46.992Z,7.66
2023-03-06T12:15:08.002Z,7.47
2023-03-06T12:20:34.170Z,7.70
2023-03-06T12:25:45.073Z,7.93
2023-03-06T12:31:18.866Z,7.88
2023-03-06T12:36:34.286Z,7.77
2023-03-06T12:41:52.802Z,7.90
2023-03-06T12:47:04.483Z,7.61
2023-03-06T12:52:18.719Z,7.77
2023-03-06T12:57:27.396Z,7.14
2023-03-06T13:03:06.750Z,7.53
2023-03-06T13:08:37.344Z,8.13
2023-03-06T13:13:46.311Z,7.83
2023-03-06T13:18:58.901Z,8.04
2023-03-06T13:24:06.161Z,8.08
2023-03-06T13:29:50.105Z,8.05
2023-03-06T13:34:53.743Z,7.61
2023-03-06T13:40:16.001Z,8.11
2023-03-06T13:45:26.248Z,7.71
2023-03-06T13:50:43.289Z,8.16
2023-03-06T13:55:58.690Z,7.93
2023-03-06T14:01:22.148Z,8.09
2023-03-06T14:06:52.359Z,7.88
2023-03-06T14:12:00.285Z,7.85
2023-03-06T14:17:06.422Z,7.23
2023-03-06T14:22:17.676Z,7.57
2023-03-06T14:27:39.357Z,8.00
2023-03-06T14:32:44.985Z,7.50
2023-03-06T14:37:53.268Z,6.65
2023-03-06T14:43:21.838Z,7.99
2023-03-06T14:48:38.476Z,7.98
2023-03-06T14:53:42.304Z,7.89
2023-03-06T14:58:53.338Z,7.50
2023-03-06T15:04:01.189Z,8.11
2023-03-06T15:09:10.242Z,7.43
2023-03-06T15:14:22.464Z,7.99
2023-03-06T15:19:27.590Z,7.94
2023-03-06T15:24:35.382Z,8.07
2023-03-06T15:29:40.102Z,7.67
2023-03-06T15:34:45.327Z,6.70
2023-03-06T15:40:09.348Z,7.57
2023-03-06T15:45:18.946Z,7.35
2023-03-06T15:50:28.435Z,6.99
2023-03-06T15:55:34.344Z,6.47
2023-03-06T16:00:39.220Z,4.19
2023-03-06T16:05:44.850Z,6.63
2023-03-06T16:10:50.690Z,6.56
2023-03-06T16:15:54.528Z,6.42
2023-03-06T16:20:59.624Z,5.53
2023-03-06T16:26:03.495Z,4.18
2023-03-06T16:31:07.328Z,6.23
2023-03-06T16:36:16.068Z,6.53
2023-03-06T16:41:21.078Z,5.95
2023-03-06T16:46:26.449Z,6.70
2023-03-06T16:51:41.687Z,6.92
2023-03-06T16:56:45.831Z,6.94
2023-03-06T17:01:49.505Z,6.61
2023-03-06T17:06:54.630Z,7.09
2023-03-06T17:11:58.407Z,6.81
2023-03-06T17:17:06.536Z,6.98
2023-03-06T17:22:11.664Z,7.01
2023-03-06T17:27:15.882Z,7.17
2023-03-06T17:32:22.283Z,7.23
2023-03-06T17:37:27.624Z,6.61
2023-03-06T17:42:31.400Z,7.13
2023-03-06T17:47:35.072Z,7.05
2023-03-06T17:52:40.292Z,7.10
2023-03-06T17:57:43.813Z,7.01
2023-03-06T18:02:47.527Z,6.90
2023-03-06T18:07:52.615Z,7.00
2023-03-06T18:12:56.659Z,6.64
2023-03-06T18:18:00.644Z,6.56
2023-03-06T18:23:05.729Z,6.43
2023-03-06T18:28:09.413Z,5.85
2023-03-06T18:33:13.171Z,6.20
2023-03-06T18:38:18.288Z,6.46
2023-03-06T18:43:23.589Z,6.43
2023-03-06T18:48:27.203Z,6.53
2023-03-06T18:53:32.533Z,6.93
2023-03-06T18:58:36.342Z,6.89
2023-03-06T19:03:40.602Z,5.34
2023-03-06T19:08:46.226Z,6.55
2023-03-06T19:13:49.864Z,6.51
2023-03-06T19:18:55.287Z,5.89
2023-03-06T19:24:00.571Z,6.73
2023-03-06T19:29:04.125Z,6.27
2023-03-06T19:34:07.834Z,6.69
2023-03-06T19:39:13.534Z,6.46
2023-03-06T19:44:17.563Z,6.69
2023-03-06T19:49:22.374Z,6.46
2023-03-06T19:54:27.514Z,6.38
2023-03-06T19:59:31.298Z,6.11
2023-03-06T20:04:35.738Z,6.23
2023-03-06T20:09:40.938Z,6.56
2023-03-06T20:14:46.055Z,6.54
2023-03-06T20:19:49.796Z,4.99
